Impacts METAR Board INFO
IDs:

KSLC - Salt Lake City Intl, UT, US

Updated at: 0915 UTC 20 Jan 2018
Potential Impact None Slight Moderate High
Time19/21Z 19/22Z 19/23Z 20/00Z 20/01Z 20/02Z 20/03Z 20/04Z 20/05Z 20/06Z 20/07Z 20/08Z 20/09Z
VIS10 10 10 0.75 3 2 1.5 1 1 1 1 1.5 1.5
CIG80 75 70 7 5 5 7 11 15 6 13 16 13
CoverOVCOVCOVCOVCOVCOVCOVCOVCOVCOVCOVCOVCOVC
FltCatVFRVFRVFRLIFRIFRIFRIFRIFRIFRIFRIFRIFRIFR
WX-------SN BR-SN BR-SN BR-SN BR-SN BR-SN BR-SN BR-SN BR-SN BR-SN BR
WDir10300330330330330340340300330320320310
WSpd12 8 21 18 14 10 10 7 9 9 11 11 8
WGst-- -- 26 -- -- -- -- -- -- -- -- -- --
Raw hourly METARs
KSLC 192054Z 01012KT 10SM FEW045 BKN080 OVC120 09/01 A2978 RMK AO2 WSHFT 2013 SLP058 VIRGA SW-NE ACSL DSNT SE AND S-SW SH DSNT NE T00940006 55007
KSLC 192154Z 30008KT 10SM FEW040 BKN075 BKN095 OVC140 09/01 A2978 RMK AO2 SLP059 VIRGA N-NE AND SW ACSL DSNT SE AND S SH DSNT NE T00940006
KSLC 192254Z 33021G26KT 10SM SCT042 BKN070 OVC090 07/02 A2982 RMK AO2 PK WND 33026/2254 SLP074 SH DSNT SW-NW T00720022
KSLC 200002Z 33018KT 3/4SM R16L/P6000FT -SN BR BKN007 OVC018 03/01 A2988 RMK AO2 SFC VIS 1 1/2 P0000 T00280011
KSLC 200054Z 33014KT 3SM -SN BR BKN005 OVC013 02/01 A2991 RMK AO2 SFC VIS 4 SLP114 P0004 T00220011
KSLC 200154Z 33010KT 2SM -SN BR BKN005 OVC010 02/01 A2994 RMK AO2 SLP125 P0003 T00170006
KSLC 200254Z 34010KT 1 1/2SM -SN BR OVC007 02/01 A2996 RMK AO2 SLP131 P0004 60011 T00170006 51024
KSLC 200354Z 34007KT 1SM R16L/P6000FT -SN BR SCT004 BKN011 OVC020 02/01 A2996 RMK AO2 SFC VIS 1 1/2 SLP131 P0004 T00170006
KSLC 200505Z 30009KT 1SM R16L/P6000FT -SN BR SCT005 OVC015 01/00 A2996 RMK AO2 CIG 005 NW RNWY P0000 T00110000
KSLC 200554Z COR 33009KT 1SM R16L/P6000FT -SN BR BKN006 OVC016 01/00 A2996 RMK AO2 SFC VIS 2 SLP132 4/001 P0002 60020 T00110000 10033 20011 50001
KSLC 200654Z 32011KT 1SM R16L/P6000FT -SN BR SCT007 OVC013 01/M01 A2994 RMK AO2 SFC VIS 1 3/4 SLP129 P0002 T00061006 401440006
KSLC 200802Z 32011KT 1 1/2SM -SN BR FEW005 OVC016 01/M01 A2991 RMK AO2 TWR VIS 2 P0000 T00061006
KSLC 200903Z 31008KT 1 1/2SM -SN BR FEW005 OVC013 01/M01 A2992 RMK AO2 TWR VIS 2 P0000 T00061006